Time;durP1;ratioP1;P1;durP2;ratioP2;P2;SDS_P1;SDS_P2;PMS_P1;PMS_P2;Temp;Humidity;BMP_temperature;BMP_pressure;BME280_temperature;BME280_humidity;BME280_pressure;Samples;Min_cycle;Max_cycle;Signal;HPM_P1;HPM_P2
2023/12/10 00:03:15;;;;;;;79.30;42.80;;;;;;;-0.53;67.25;98299.64;234385;214;140338;-56
2023/12/10 00:08:20;;;;;;;79.70;42.40;;;;;;;-0.57;67.04;98290.37;234429;215;138494;-53
2023/12/10 00:13:23;;;;;;;77.20;44.40;;;;;;;-0.63;66.90;98284.27;234360;215;148036;-58
2023/12/10 00:18:27;;;;;;;75.10;40.70;;;;;;;-0.66;67.18;98287.34;234449;215;139936;-56
2023/12/10 00:23:30;;;;;;;70.80;40.70;;;;;;;-0.72;67.23;98272.16;234267;212;137062;-56
2023/12/10 00:28:34;;;;;;;79.10;42.20;;;;;;;-0.76;67.31;98267.91;234220;213;147579;-56
2023/12/10 00:33:37;;;;;;;76.50;40.90;;;;;;;-0.81;67.32;98264.09;234111;214;138823;-57
2023/12/10 00:38:42;;;;;;;70.40;38.10;;;;;;;-0.83;67.63;98268.15;233500;215;138058;-56
2023/12/10 00:43:47;;;;;;;62.70;33.40;;;;;;;-0.85;67.69;98258.63;233771;214;147966;-57
2023/12/10 00:48:51;;;;;;;67.20;34.30;;;;;;;-0.87;67.57;98250.51;233277;212;139009;-53
2023/12/10 00:53:55;;;;;;;58.90;33.30;;;;;;;-0.89;67.59;98249.15;233759;214;138460;-54
2023/12/10 00:58:59;;;;;;;59.70;32.80;;;;;;;-0.89;67.84;98249.85;233881;214;147904;-55
2023/12/10 01:04:02;;;;;;;58.50;30.90;;;;;;;-0.89;67.73;98253.69;234302;215;138703;-54
2023/12/10 01:09:07;;;;;;;50.30;29.20;;;;;;;-0.92;67.61;98245.94;234351;213;154014;-55
2023/12/10 01:14:12;;;;;;;;;;;;;;;-0.93;67.61;98251.53;234476;215;149239;-57
2023/12/10 01:19:16;;;;;;;54.40;29.90;;;;;;;-0.92;67.44;98251.16;233925;213;139183;-56
2023/12/10 01:24:20;;;;;;;50.60;27.70;;;;;;;-0.96;67.20;98244.66;234236;215;138006;-56
2023/12/10 01:29:25;;;;;;;47.10;26.80;;;;;;;-1.00;67.39;98240.08;233884;213;147465;-58
2023/12/10 01:34:29;;;;;;;48.50;27.60;;;;;;;-1.00;67.50;98245.09;233822;212;139065;-55
2023/12/10 01:39:33;;;;;;;47.70;26.20;;;;;;;-1.01;67.46;98247.75;232804;213;137070;-57
2023/12/10 01:44:36;;;;;;;53.30;27.50;;;;;;;-1.03;67.39;98240.48;233452;213;148671;-56
2023/12/10 01:49:40;;;;;;;53.70;28.40;;;;;;;-1.04;67.20;98224.86;234326;215;138780;-56
2023/12/10 01:54:43;;;;;;;51.80;28.50;;;;;;;-1.07;66.97;98218.17;234144;213;137310;-56
2023/12/10 01:59:47;;;;;;;53.10;28.80;;;;;;;-1.13;66.92;98222.33;234354;215;148057;-56
2023/12/10 02:04:53;;;;;;;57.40;29.10;;;;;;;-1.13;67.13;98219.73;234431;215;139695;-56
2023/12/10 02:10:01;;;;;;;52.70;27.00;;;;;;;-1.13;67.09;98203.88;234176;216;137015;-53
2023/12/10 02:15:18;;;;;;;47.00;25.20;;;;;;;-1.12;67.31;98183.84;234365;215;148439;-57
2023/12/10 02:20:21;;;;;;;46.60;25.30;;;;;;;-1.04;67.63;98177.88;234326;215;138995;-56
2023/12/10 02:25:50;;;;;;;47.80;25.30;;;;;;;-0.98;67.58;98174.54;234338;213;136982;-57
2023/12/10 02:30:54;;;;;;;44.80;24.60;;;;;;;-0.92;67.59;98161.65;234309;210;147759;-56
2023/12/10 02:35:57;;;;;;;47.40;25.00;;;;;;;-0.86;67.54;98169.85;234381;215;139172;-54
2023/12/10 02:41:00;;;;;;;47.30;24.50;;;;;;;-0.83;67.28;98164.71;234343;215;136886;-54
2023/12/10 02:46:04;;;;;;;46.40;24.80;;;;;;;-0.81;67.50;98150.20;234266;213;147380;-54
2023/12/10 02:51:07;;;;;;;44.00;23.70;;;;;;;-0.76;67.59;98143.60;234323;215;138790;-54
2023/12/10 02:56:10;;;;;;;46.80;22.60;;;;;;;-0.70;67.48;98133.83;233504;215;138589;-55
2023/12/10 03:01:14;;;;;;;42.50;24.30;;;;;;;-0.59;67.27;98138.89;234298;215;147671;-56
2023/12/10 03:06:17;;;;;;;41.10;23.20;;;;;;;-0.49;67.00;98140.66;234451;215;138099;-55
2023/12/10 03:11:20;;;;;;;42.30;22.40;;;;;;;-0.42;66.99;98140.95;234283;214;137803;-55
2023/12/10 03:16:23;;;;;;;35.40;21.00;;;;;;;-0.35;66.98;98140.18;234383;215;148043;-60
2023/12/10 03:21:27;;;;;;;40.00;21.00;;;;;;;-0.30;67.06;98134.79;234356;215;139984;-60
2023/12/10 03:26:30;;;;;;;37.20;21.50;;;;;;;-0.20;66.98;98122.09;234346;215;137785;-56
2023/12/10 03:31:33;;;;;;;36.80;21.80;;;;;;;-0.18;66.68;98118.40;234435;215;148112;-57
2023/12/10 03:36:36;;;;;;;38.40;21.30;;;;;;;-0.22;66.71;98125.13;234507;211;139074;-57
2023/12/10 03:41:39;;;;;;;36.40;20.70;;;;;;;-0.23;66.84;98132.32;234371;215;138082;-57
2023/12/10 03:46:42;;;;;;;38.40;21.40;;;;;;;-0.26;67.09;98138.34;234480;214;147370;-56
2023/12/10 03:51:45;;;;;;;35.40;20.80;;;;;;;-0.29;67.30;98132.50;234445;215;139466;-56
2023/12/10 03:56:49;;;;;;;35.80;20.00;;;;;;;-0.28;67.57;98125.66;234313;214;136883;-56
2023/12/10 04:01:52;;;;;;;35.50;20.00;;;;;;;-0.21;67.59;98119.87;234210;215;147673;-58
2023/12/10 04:06:56;;;;;;;36.60;21.00;;;;;;;-0.17;67.42;98117.30;234707;207;138937;-58
2023/12/10 04:11:59;;;;;;;35.10;19.90;;;;;;;-0.17;67.30;98116.96;234395;215;138244;-56
2023/12/10 04:17:04;;;;;;;34.30;20.40;;;;;;;-0.15;67.51;98122.30;234378;214;147598;-55
2023/12/10 04:22:07;;;;;;;33.70;19.80;;;;;;;-0.14;67.59;98117.87;234337;213;138875;-55
2023/12/10 04:27:10;;;;;;;30.90;18.30;;;;;;;-0.12;67.65;98123.22;234379;215;139530;-56
2023/12/10 04:32:14;;;;;;;31.00;17.70;;;;;;;-0.06;68.00;98116.59;233942;215;147583;-54
2023/12/10 04:37:18;;;;;;;30.90;17.60;;;;;;;-0.01;67.97;98130.33;233622;215;138691;-54
2023/12/10 04:42:21;;;;;;;28.20;17.40;;;;;;;0.05;68.13;98140.09;234510;207;137344;-55
2023/12/10 04:47:24;;;;;;;29.20;17.40;;;;;;;0.09;68.09;98142.20;234406;212;147324;-54
2023/12/10 04:52:27;;;;;;;28.10;17.60;;;;;;;0.14;68.20;98146.25;234421;214;138853;-56
2023/12/10 04:57:31;;;;;;;29.30;17.60;;;;;;;0.17;68.34;98149.77;233985;213;137449;-54
2023/12/10 05:02:35;;;;;;;33.80;18.60;;;;;;;0.25;68.51;98150.73;234347;215;148723;-56
2023/12/10 05:07:38;;;;;;;32.00;18.50;;;;;;;0.30;68.47;98147.59;234437;214;140133;-57
2023/12/10 05:12:41;;;;;;;30.80;17.30;;;;;;;0.32;68.47;98155.55;234555;213;138588;-55
2023/12/10 05:17:44;;;;;;;34.40;19.20;;;;;;;0.35;68.29;98154.02;234420;215;147550;-56
2023/12/10 05:22:47;;;;;;;34.60;19.70;;;;;;;0.38;68.22;98154.64;234391;215;140068;-57
2023/12/10 05:27:51;;;;;;;39.20;21.00;;;;;;;0.40;68.20;98157.36;233807;214;136744;-53
2023/12/10 05:32:54;;;;;;;37.20;21.70;;;;;;;0.40;68.10;98156.81;233595;213;147998;-55
2023/12/10 05:37:57;;;;;;;34.30;20.00;;;;;;;0.40;67.95;98159.77;234419;213;139485;-55
2023/12/10 05:43:01;;;;;;;33.50;19.80;;;;;;;0.41;67.98;98164.63;234570;212;137799;-55
2023/12/10 05:48:04;;;;;;;35.80;20.80;;;;;;;0.41;67.96;98163.61;234533;212;147552;-56
2023/12/10 05:53:08;;;;;;;39.00;21.90;;;;;;;0.39;68.19;98176.05;234342;213;139368;-55
2023/12/10 05:58:11;;;;;;;35.70;21.20;;;;;;;0.41;68.28;98182.45;234399;215;138051;-56
2023/12/10 06:03:15;;;;;;;41.40;22.10;;;;;;;0.48;68.18;98176.10;234315;215;148226;-56
2023/12/10 06:08:18;;;;;;;41.80;23.40;;;;;;;0.53;68.20;98178.20;233909;212;138906;-57
2023/12/10 06:13:22;;;;;;;41.80;24.00;;;;;;;0.56;67.96;98180.35;234159;215;140256;-57
2023/12/10 06:18:25;;;;;;;43.10;23.60;;;;;;;0.57;67.86;98189.40;233996;213;148563;-57
2023/12/10 06:23:28;;;;;;;42.80;23.70;;;;;;;0.54;68.03;98199.61;234267;213;138861;-55
2023/12/10 06:28:31;;;;;;;42.30;24.60;;;;;;;0.54;67.98;98207.29;234347;211;136715;-56
2023/12/10 06:33:35;;;;;;;47.10;25.00;;;;;;;0.55;68.05;98213.02;234458;207;147419;-57
2023/12/10 06:38:38;;;;;;;47.50;25.70;;;;;;;0.58;68.10;98216.05;233542;213;139672;-55
2023/12/10 06:43:41;;;;;;;49.50;27.40;;;;;;;0.58;68.07;98225.65;234209;212;138486;-56
2023/12/10 06:48:45;;;;;;;51.00;27.00;;;;;;;0.55;68.10;98228.20;234483;212;147508;-56
2023/12/10 06:53:48;;;;;;;49.30;27.40;;;;;;;0.58;68.21;98239.96;234386;213;138852;-55
2023/12/10 06:58:52;;;;;;;48.90;27.60;;;;;;;0.60;68.42;98250.70;234411;215;137549;-57
2023/12/10 07:03:55;;;;;;;43.30;24.10;;;;;;;0.63;68.47;98248.17;234380;209;147443;-54
2023/12/10 07:08:59;;;;;;;41.90;24.60;;;;;;;0.65;68.48;98253.33;234312;215;137885;-55
2023/12/10 07:14:02;;;;;;;43.40;24.20;;;;;;;0.67;68.49;98259.89;234352;215;137521;-55
2023/12/10 07:19:05;;;;;;;41.10;23.40;;;;;;;0.70;68.84;98267.45;234468;213;147822;-56
2023/12/10 07:24:09;;;;;;;43.30;24.80;;;;;;;0.79;68.80;98275.89;234098;212;138843;-58
2023/12/10 07:29:12;;;;;;;41.30;24.00;;;;;;;0.82;68.60;98281.88;234325;215;138172;-56
2023/12/10 07:34:15;;;;;;;46.00;26.70;;;;;;;0.86;68.67;98288.39;234069;214;148704;-59
2023/12/10 07:39:19;;;;;;;49.00;27.10;;;;;;;0.90;68.76;98299.41;234374;213;138887;-60
2023/12/10 07:44:23;;;;;;;42.10;24.80;;;;;;;0.92;68.56;98304.23;234411;215;138683;-61
2023/12/10 07:49:26;;;;;;;47.70;26.80;;;;;;;0.98;68.89;98315.20;234356;213;148575;-61
2023/12/10 07:54:30;;;;;;;45.60;25.10;;;;;;;1.06;68.93;98327.51;234385;215;139530;-58
2023/12/10 07:59:33;;;;;;;43.40;24.80;;;;;;;1.19;69.26;98342.92;234461;213;138693;-60
2023/12/10 08:04:36;;;;;;;44.90;25.80;;;;;;;1.41;69.20;98349.30;234231;213;147694;-59
2023/12/10 08:09:40;;;;;;;42.40;25.70;;;;;;;1.60;68.85;98357.19;234378;215;138667;-59
2023/12/10 08:14:44;;;;;;;140.50;90.10;;;;;;;2.37;71.58;98353.84;234383;215;137807;-59
2023/12/10 08:19:47;;;;;;;50.60;30.00;;;;;;;2.49;68.17;98349.91;234430;214;147105;-58
2023/12/10 08:24:51;;;;;;;294.10;186.80;;;;;;;2.47;67.28;98356.98;234419;213;139691;-56
2023/12/10 08:29:54;;;;;;;54.10;31.60;;;;;;;2.47;67.67;98361.69;234404;215;138248;-58
2023/12/10 08:34:57;;;;;;;49.80;30.10;;;;;;;2.43;67.26;98372.54;234424;212;147665;-60
2023/12/10 08:40:03;;;;;;;53.20;30.80;;;;;;;2.35;67.05;98381.77;233940;213;140116;-62
2023/12/10 08:45:08;;;;;;;;;;;;;;;2.28;67.16;98383.30;234367;215;137285;-60
2023/12/10 08:50:13;;;;;;;47.50;28.20;;;;;;;2.19;67.39;98387.13;234477;215;147355;-58
2023/12/10 08:55:16;;;;;;;47.20;26.80;;;;;;;2.21;67.71;98386.00;234318;215;138930;-59
2023/12/10 09:00:19;;;;;;;37.80;22.90;;;;;;;2.30;67.72;98389.86;234526;215;138162;-59
2023/12/10 09:05:22;;;;;;;34.50;20.80;;;;;;;2.39;67.72;98392.46;234278;215;147261;-59
2023/12/10 09:10:25;;;;;;;36.40;21.30;;;;;;;2.52;67.92;98383.56;234181;214;140102;-58
2023/12/10 09:15:29;;;;;;;111.80;73.20;;;;;;;2.62;68.07;98383.67;234388;214;137819;-58
2023/12/10 09:20:32;;;;;;;28.90;17.50;;;;;;;2.82;68.36;98383.91;233526;215;148014;-66
2023/12/10 09:25:36;;;;;;;27.60;16.80;;;;;;;2.85;67.54;98383.60;234487;213;138885;-59
2023/12/10 09:30:40;;;;;;;27.50;17.90;;;;;;;2.91;67.51;98387.72;234513;215;137884;-59
2023/12/10 09:35:43;;;;;;;33.40;20.00;;;;;;;3.00;67.36;98387.89;234331;215;147497;-59
2023/12/10 09:40:47;;;;;;;33.50;20.30;;;;;;;3.10;67.51;98379.05;234370;215;138919;-59
2023/12/10 09:45:50;;;;;;;401.40;273.20;;;;;;;3.25;67.76;98385.77;234414;214;137473;-59
2023/12/10 09:50:53;;;;;;;36.30;23.10;;;;;;;3.41;67.74;98378.60;234317;215;149657;-57
2023/12/10 09:55:56;;;;;;;29.90;19.30;;;;;;;3.45;67.57;98378.42;234129;213;139150;-59
2023/12/10 10:01:05;;;;;;;30.50;19.20;;;;;;;3.52;67.79;98380.77;233810;213;137383;-55
2023/12/10 10:06:13;;;;;;;34.70;21.40;;;;;;;3.64;68.43;98380.41;234530;215;148200;-59
2023/12/10 10:11:17;;;;;;;29.60;18.90;;;;;;;3.75;68.07;98371.99;234409;215;139327;-61
2023/12/10 10:16:20;;;;;;;27.20;18.10;;;;;;;3.79;68.12;98375.14;234010;215;137237;-61
2023/12/10 10:21:24;;;;;;;27.30;17.30;;;;;;;3.82;68.26;98376.77;234315;208;147733;-57
2023/12/10 10:26:27;;;;;;;51.70;34.90;;;;;;;3.88;69.23;98371.05;234320;209;138866;-58
2023/12/10 10:31:32;;;;;;;32.20;20.00;;;;;;;4.02;68.51;98362.51;234401;213;137367;-61
2023/12/10 10:36:37;;;;;;;35.30;19.30;;;;;;;4.05;68.13;98360.63;234403;213;148713;-59
2023/12/10 10:41:42;;;;;;;22.00;13.90;;;;;;;4.10;68.18;98361.77;234275;211;139418;-57
2023/12/10 10:46:45;;;;;;;29.40;18.10;;;;;;;4.16;68.08;98361.18;234250;214;136612;-58
2023/12/10 10:51:48;;;;;;;29.60;19.20;;;;;;;4.18;68.01;98368.11;234323;211;147359;-57
2023/12/10 10:56:52;;;;;;;30.80;19.20;;;;;;;4.16;67.85;98373.99;234140;212;141849;-59
2023/12/10 11:01:58;;;;;;;30.50;19.70;;;;;;;4.12;68.22;98369.26;234313;208;136788;-60
2023/12/10 11:07:02;;;;;;;33.90;19.90;;;;;;;4.21;68.26;98374.10;234485;207;147868;-58
2023/12/10 11:12:05;;;;;;;30.70;20.30;;;;;;;4.28;68.03;98373.94;234304;213;140272;-59
2023/12/10 11:17:09;;;;;;;29.90;19.20;;;;;;;4.33;68.04;98365.46;234336;208;137361;-58
2023/12/10 11:22:14;;;;;;;133.20;79.80;;;;;;;4.40;68.49;98365.48;234307;212;146673;-57
2023/12/10 11:27:18;;;;;;;29.20;19.40;;;;;;;4.61;69.42;98366.91;233833;213;138851;-58
2023/12/10 11:32:22;;;;;;;28.30;18.30;;;;;;;4.69;67.95;98367.90;234323;215;137981;-56
2023/12/10 11:37:25;;;;;;;28.20;19.00;;;;;;;4.78;67.55;98369.60;234375;215;147716;-58
2023/12/10 11:42:28;;;;;;;28.10;18.80;;;;;;;4.85;67.08;98368.70;234399;215;139962;-56
2023/12/10 11:47:32;;;;;;;28.50;19.00;;;;;;;4.92;67.01;98363.79;234375;215;137464;-59
2023/12/10 11:52:36;;;;;;;28.80;18.80;;;;;;;4.95;66.95;98372.99;234368;212;148189;-58
2023/12/10 11:57:42;;;;;;;26.40;18.10;;;;;;;4.95;66.64;98381.77;233945;207;138967;-58
2023/12/10 12:02:46;;;;;;;58.60;42.60;;;;;;;4.96;66.59;98383.27;234279;207;137897;-58
2023/12/10 12:07:50;;;;;;;27.20;18.90;;;;;;;5.05;67.64;98391.81;234455;214;148756;-61
2023/12/10 12:12:54;;;;;;;26.80;18.00;;;;;;;5.07;66.54;98396.14;234540;213;141173;-62
2023/12/10 12:17:57;;;;;;;30.20;19.10;;;;;;;5.01;66.35;98403.65;234274;213;137307;-62
2023/12/10 12:23:01;;;;;;;30.90;20.00;;;;;;;4.97;66.43;98406.92;233990;215;150173;-62
2023/12/10 12:28:07;;;;;;;34.80;20.90;;;;;;;4.94;66.38;98412.40;233686;212;140730;-62
2023/12/10 12:33:11;;;;;;;31.70;19.90;;;;;;;4.89;66.32;98412.27;234284;212;136917;-62
2023/12/10 12:38:14;;;;;;;32.20;21.10;;;;;;;4.82;66.45;98419.10;234344;214;147532;-61
2023/12/10 12:43:18;;;;;;;35.40;22.30;;;;;;;4.79;66.49;98425.08;234247;214;139393;-62
2023/12/10 12:48:21;;;;;;;32.80;22.00;;;;;;;4.78;66.49;98429.70;234464;208;137712;-62
2023/12/10 12:53:25;;;;;;;36.00;23.00;;;;;;;4.75;66.56;98429.46;234409;212;147541;-61
2023/12/10 12:58:28;;;;;;;37.60;23.60;;;;;;;4.73;66.75;98429.08;234309;213;138724;-59
2023/12/10 13:03:31;;;;;;;37.70;23.90;;;;;;;4.73;66.89;98433.30;234339;213;137696;-60
2023/12/10 13:08:35;;;;;;;39.70;24.10;;;;;;;4.73;66.97;98440.63;234378;213;147491;-61
2023/12/10 13:13:38;;;;;;;232.70;163.70;;;;;;;4.77;67.65;98443.45;234310;207;139461;-59
2023/12/10 13:18:41;;;;;;;42.20;26.50;;;;;;;4.91;69.25;98446.97;234426;213;138093;-59
2023/12/10 13:23:45;;;;;;;38.00;24.40;;;;;;;4.95;66.97;98454.02;234393;213;147269;-60
2023/12/10 13:28:49;;;;;;;36.40;22.90;;;;;;;4.84;66.65;98454.70;234353;212;139709;-58
2023/12/10 13:33:53;;;;;;;62.40;38.70;;;;;;;4.84;69.32;98454.01;234304;208;137740;-61
2023/12/10 13:38:56;;;;;;;36.70;22.10;;;;;;;4.99;67.80;98454.02;234303;213;148419;-62
2023/12/10 13:44:01;;;;;;;33.50;20.70;;;;;;;4.91;66.91;98454.89;234260;207;141146;-63
2023/12/10 13:49:04;;;;;;;34.90;22.10;;;;;;;4.88;67.01;98463.10;234327;212;138340;-62
2023/12/10 13:54:08;;;;;;;31.60;20.30;;;;;;;4.85;67.14;98469.09;234371;212;148811;-62
2023/12/10 13:59:12;;;;;;;34.20;20.20;;;;;;;4.81;67.51;98475.27;234398;212;139400;-61
2023/12/10 14:04:15;;;;;;;28.70;18.40;;;;;;;4.76;67.70;98482.13;234402;212;137733;-64
2023/12/10 14:09:18;;;;;;;29.20;18.20;;;;;;;4.70;67.72;98487.02;234318;215;147434;-63
2023/12/10 14:14:21;;;;;;;28.30;18.40;;;;;;;4.67;68.09;98494.17;234286;208;138929;-63
2023/12/10 14:19:25;;;;;;;29.10;18.20;;;;;;;4.62;68.22;98488.44;234304;215;137095;-68
2023/12/10 14:24:28;;;;;;;30.20;18.70;;;;;;;4.51;68.69;98490.86;234416;213;147503;-62
2023/12/10 14:29:31;;;;;;;34.10;21.30;;;;;;;4.41;69.21;98497.98;234240;214;138889;-62
2023/12/10 14:34:35;;;;;;;34.20;20.50;;;;;;;4.38;69.60;98502.39;234358;213;137675;-62
2023/12/10 14:39:38;;;;;;;29.00;19.00;;;;;;;4.37;69.89;98509.09;234213;215;147534;-61
2023/12/10 14:44:42;;;;;;;33.70;20.40;;;;;;;4.34;69.99;98512.02;234337;212;138879;-61
2023/12/10 14:49:45;;;;;;;31.80;19.30;;;;;;;4.31;70.23;98509.55;234346;208;138441;-58
2023/12/10 14:54:48;;;;;;;34.30;20.30;;;;;;;4.28;70.50;98505.83;234457;213;148559;-57
2023/12/10 14:59:51;;;;;;;38.50;22.10;;;;;;;4.31;70.87;98502.00;234152;213;140226;-58
2023/12/10 15:04:55;;;;;;;264.40;184.00;;;;;;;4.36;72.53;98505.26;234390;211;136815;-61
2023/12/10 15:09:59;;;;;;;39.30;23.80;;;;;;;4.74;73.83;98498.62;234300;213;147356;-57
2023/12/10 15:15:03;;;;;;;35.70;22.20;;;;;;;4.71;71.40;98501.37;234281;213;140039;-59
2023/12/10 15:20:07;;;;;;;33.00;20.60;;;;;;;4.58;71.23;98502.52;234239;212;137669;-57
2023/12/10 15:25:10;;;;;;;32.90;19.20;;;;;;;4.45;71.39;98510.10;234290;212;147637;-58
2023/12/10 15:30:15;;;;;;;31.00;19.30;;;;;;;4.39;71.76;98515.17;234498;213;138687;-61
2023/12/10 15:35:21;;;;;;;30.70;18.40;;;;;;;4.33;72.02;98521.73;234338;208;137570;-57
2023/12/10 15:40:24;;;;;;;33.20;20.70;;;;;;;4.30;72.37;98516.96;234308;213;148002;-57
2023/12/10 15:45:28;;;;;;;34.20;19.90;;;;;;;4.28;72.60;98518.63;234289;212;138900;-57
2023/12/10 15:50:31;;;;;;;30.10;18.60;;;;;;;4.25;72.73;98520.36;234312;214;137914;-58
2023/12/10 15:55:34;;;;;;;33.10;19.10;;;;;;;4.25;72.79;98529.31;234335;213;147659;-57
2023/12/10 16:00:37;;;;;;;33.70;19.60;;;;;;;4.29;72.82;98522.63;234380;211;139674;-58
2023/12/10 16:05:40;;;;;;;32.30;21.10;;;;;;;4.34;72.61;98520.98;234355;213;136848;-58
2023/12/10 16:10:44;;;;;;;32.30;20.90;;;;;;;4.37;72.58;98523.50;234310;213;147486;-57
2023/12/10 16:15:48;;;;;;;33.50;21.20;;;;;;;4.35;72.65;98525.14;234223;213;138801;-60
2023/12/10 16:20:51;;;;;;;91.10;57.30;;;;;;;4.43;74.37;98535.50;234369;215;137805;-58
2023/12/10 16:25:55;;;;;;;37.30;24.40;;;;;;;4.63;73.42;98537.39;234349;208;148424;-57
2023/12/10 16:30:58;;;;;;;38.20;22.90;;;;;;;4.54;72.58;98542.91;234470;212;138773;-57
2023/12/10 16:36:02;;;;;;;39.40;23.50;;;;;;;4.42;72.53;98544.66;234358;212;136691;-59
2023/12/10 16:41:07;;;;;;;38.30;23.80;;;;;;;4.31;72.67;98531.31;234257;212;149318;-60
2023/12/10 16:46:11;;;;;;;42.40;24.60;;;;;;;4.23;72.67;98535.88;234266;211;139481;-57
2023/12/10 16:51:15;;;;;;;42.20;24.80;;;;;;;4.18;72.88;98539.63;234350;212;137955;-56
2023/12/10 16:56:19;;;;;;;34.90;21.70;;;;;;;4.19;72.94;98541.17;234333;214;147500;-58
2023/12/10 17:01:24;;;;;;;40.20;25.00;;;;;;;4.25;72.71;98541.23;234356;213;138980;-57
2023/12/10 17:06:28;;;;;;;40.50;24.50;;;;;;;4.26;72.76;98538.39;234430;213;137935;-57
2023/12/10 17:11:32;;;;;;;42.30;24.30;;;;;;;4.28;72.60;98543.21;234367;214;147656;-56
2023/12/10 17:16:35;;;;;;;40.00;23.40;;;;;;;4.30;72.70;98547.36;234417;212;139537;-59
2023/12/10 17:21:39;;;;;;;40.60;24.10;;;;;;;4.32;72.61;98547.44;234275;213;137041;-57
2023/12/10 17:26:42;;;;;;;270.80;167.70;;;;;;;4.33;73.16;98548.25;234228;208;147636;-60
2023/12/10 17:31:46;;;;;;;54.30;32.20;;;;;;;4.53;73.88;98553.33;234402;212;138955;-60
2023/12/10 17:36:50;;;;;;;48.40;28.80;;;;;;;4.43;72.68;98557.46;234406;213;137767;-61
2023/12/10 17:41:54;;;;;;;51.80;29.20;;;;;;;4.31;72.86;98555.89;234235;212;149022;-59
2023/12/10 17:46:57;;;;;;;45.70;28.00;;;;;;;4.19;72.95;98552.02;234192;214;139423;-60
2023/12/10 17:52:02;;;;;;;41.20;25.90;;;;;;;4.12;73.33;98549.89;234246;214;137667;-62
2023/12/10 17:57:08;;;;;;;43.00;26.50;;;;;;;4.20;73.50;98547.22;234274;213;148577;-60
2023/12/10 18:02:12;;;;;;;45.60;26.90;;;;;;;4.29;73.26;98545.41;234398;213;138995;-60
2023/12/10 18:07:17;;;;;;;43.00;25.50;;;;;;;4.35;73.14;98539.39;234285;212;138419;-60
2023/12/10 18:12:20;;;;;;;40.10;25.80;;;;;;;4.32;73.10;98543.40;234391;212;148544;-60
2023/12/10 18:17:24;;;;;;;41.70;24.70;;;;;;;4.30;73.19;98554.92;234247;215;138765;-60
2023/12/10 18:22:34;;;;;;;49.20;25.80;;;;;;;4.27;73.30;98561.86;234279;214;136915;-58
2023/12/10 18:27:37;;;;;;;41.50;25.30;;;;;;;4.26;73.41;98562.79;234269;213;148844;-57
2023/12/10 18:32:41;;;;;;;38.40;24.00;;;;;;;4.29;73.56;98561.44;234137;209;140719;-59
2023/12/10 18:37:49;;;;;;;38.90;24.20;;;;;;;4.30;73.52;98558.23;234187;208;136879;-60
2023/12/10 18:42:53;;;;;;;41.90;23.70;;;;;;;4.30;73.63;98547.70;234450;208;147357;-61
2023/12/10 18:47:56;;;;;;;374.90;253.20;;;;;;;4.37;74.42;98542.10;234329;214;140049;-57
2023/12/10 18:53:01;;;;;;;36.10;21.60;;;;;;;4.70;74.30;98541.14;234297;211;138589;-60
2023/12/10 18:58:06;;;;;;;38.30;23.20;;;;;;;4.81;73.08;98539.41;234365;211;147305;-59
2023/12/10 19:03:10;;;;;;;42.80;23.40;;;;;;;4.83;72.76;98537.69;234079;214;138865;-60
2023/12/10 19:08:15;;;;;;;39.60;21.70;;;;;;;4.86;72.55;98540.02;234381;208;137959;-61
2023/12/10 19:13:19;;;;;;;40.10;22.20;;;;;;;4.87;72.39;98543.85;234364;215;149089;-59
2023/12/10 19:18:24;;;;;;;36.40;21.40;;;;;;;4.84;72.57;98539.25;234399;212;140058;-60
2023/12/10 19:23:28;;;;;;;;;;;;;;;4.81;72.92;98532.72;234283;213;136582;-61
2023/12/10 19:28:32;;;;;;;36.10;21.10;;;;;;;4.74;73.00;98522.16;234251;215;147507;-58
2023/12/10 19:33:37;;;;;;;35.10;20.80;;;;;;;4.71;73.34;98525.25;234269;213;138907;-59
2023/12/10 19:38:43;;;;;;;34.00;20.80;;;;;;;4.72;73.50;98523.45;234317;208;138071;-58
2023/12/10 19:43:47;;;;;;;34.30;19.40;;;;;;;4.73;73.60;98521.66;234295;213;148543;-60
2023/12/10 19:48:51;;;;;;;36.00;19.60;;;;;;;4.76;73.48;98512.19;234346;213;139904;-63
2023/12/10 19:53:54;;;;;;;34.70;19.90;;;;;;;4.83;73.54;98518.72;234252;212;138133;-62
2023/12/10 19:58:58;;;;;;;62.70;46.80;;;;;;;4.93;73.44;98512.10;234260;211;147296;-55
2023/12/10 20:04:02;;;;;;;50.60;28.90;;;;;;;5.14;74.93;98506.35;234186;212;139765;-54
2023/12/10 20:09:07;;;;;;;35.60;20.40;;;;;;;5.47;73.36;98501.73;234339;212;137756;-55
2023/12/10 20:14:10;;;;;;;32.30;19.20;;;;;;;5.39;72.54;98498.08;233413;208;147356;-55
2023/12/10 20:19:14;;;;;;;30.60;19.50;;;;;;;5.31;72.52;98501.29;234420;211;139910;-54
2023/12/10 20:24:17;;;;;;;36.50;19.30;;;;;;;5.25;72.56;98505.48;234408;215;137769;-55
2023/12/10 20:29:37;;;;;;;31.50;18.70;;;;;;;5.21;72.63;98510.57;234302;215;147700;-55
2023/12/10 20:34:40;;;;;;;30.80;18.60;;;;;;;5.16;72.79;98504.12;234179;208;140036;-54
2023/12/10 20:39:44;;;;;;;30.60;18.70;;;;;;;5.17;72.77;98495.28;233206;212;138345;-54
2023/12/10 20:44:50;;;;;;;34.60;18.40;;;;;;;5.20;72.90;98494.09;233853;212;147945;-55
2023/12/10 20:49:53;;;;;;;34.80;19.70;;;;;;;5.24;72.96;98488.44;234332;207;138907;-56
2023/12/10 20:54:56;;;;;;;35.70;19.90;;;;;;;5.29;72.82;98481.00;234593;212;137383;-55
2023/12/10 21:00:00;;;;;;;37.70;21.80;;;;;;;5.35;72.76;98473.66;234355;212;147701;-57
2023/12/10 21:05:04;;;;;;;40.20;21.40;;;;;;;5.38;72.68;98469.08;234397;215;138830;-56
2023/12/10 21:10:09;;;;;;;35.50;20.90;;;;;;;5.32;72.41;98460.11;234275;213;139892;-55
2023/12/10 21:15:12;;;;;;;36.20;19.30;;;;;;;5.16;72.51;98464.75;234469;213;147594;-56
2023/12/10 21:20:16;;;;;;;31.50;19.70;;;;;;;5.11;72.94;98469.77;234335;212;139757;-57
2023/12/10 21:25:19;;;;;;;34.40;19.10;;;;;;;5.14;72.95;98466.92;234315;212;136792;-54
2023/12/10 21:30:22;;;;;;;34.30;19.40;;;;;;;5.15;73.09;98460.73;234368;211;147463;-54
2023/12/10 21:35:26;;;;;;;35.80;19.90;;;;;;;5.19;73.15;98460.17;234424;212;138916;-57
2023/12/10 21:40:29;;;;;;;33.10;19.40;;;;;;;5.24;72.86;98452.78;234045;213;137114;-55
2023/12/10 21:45:32;;;;;;;42.30;20.80;;;;;;;5.28;72.88;98457.84;233096;212;148665;-53
2023/12/10 21:50:36;;;;;;;36.00;20.50;;;;;;;5.36;72.75;98459.19;234331;212;139130;-53
2023/12/10 21:55:39;;;;;;;36.90;20.80;;;;;;;5.41;72.51;98446.06;234481;213;137769;-54
2023/12/10 22:00:42;;;;;;;38.40;21.20;;;;;;;5.39;72.32;98437.02;234391;212;147398;-54
2023/12/10 22:05:45;;;;;;;38.40;21.40;;;;;;;5.33;72.48;98431.00;234381;213;139754;-54
2023/12/10 22:10:52;;;;;;;38.30;21.90;;;;;;;5.29;72.82;98415.41;234374;207;140568;-55
2023/12/10 22:15:55;;;;;;;38.00;20.40;;;;;;;5.29;73.04;98406.63;234148;213;150029;-56
2023/12/10 22:20:58;;;;;;;38.60;21.20;;;;;;;5.22;72.91;98410.10;234297;208;140036;-56
2023/12/10 22:26:02;;;;;;;33.00;20.30;;;;;;;5.09;72.71;98408.48;234297;214;137780;-56
2023/12/10 22:31:08;;;;;;;34.90;20.40;;;;;;;4.94;72.53;98402.00;234489;213;150566;-55
2023/12/10 22:36:12;;;;;;;35.90;21.50;;;;;;;4.78;72.59;98395.24;234327;211;138877;-55
2023/12/10 22:41:16;;;;;;;32.90;19.90;;;;;;;4.62;72.97;98389.53;234302;213;139361;-55
2023/12/10 22:46:20;;;;;;;37.90;19.80;;;;;;;4.53;73.37;98399.61;234310;208;149826;-56
2023/12/10 22:51:23;;;;;;;35.20;20.60;;;;;;;4.50;73.24;98397.80;233688;213;139524;-56
2023/12/10 22:56:27;;;;;;;34.80;20.10;;;;;;;4.46;73.37;98388.70;234260;208;137977;-55
2023/12/10 23:01:30;;;;;;;32.90;20.00;;;;;;;4.43;73.63;98381.15;233964;212;150395;-54
2023/12/10 23:06:33;;;;;;;40.80;20.80;;;;;;;4.43;73.63;98370.93;234338;212;138804;-52
2023/12/10 23:11:42;;;;;;;32.40;19.80;;;;;;;4.39;73.72;98362.17;234363;209;138129;-53
2023/12/10 23:16:46;;;;;;;34.60;20.60;;;;;;;4.35;73.80;98363.05;234440;212;149420;-54